sensor_id;sensor_type;location;lat;lon;timestamp;P1;durP1;ratioP1;P2;durP2;ratioP2
41923;SDS011;27613;48.116;11.656;2024-01-27T00:01:08;3.53;;;1.27;;
41923;SDS011;27613;48.116;11.656;2024-01-27T00:03:33;4.05;;;1.70;;
41923;SDS011;27613;48.116;11.656;2024-01-27T00:05:59;1.77;;;1.10;;
41923;SDS011;27613;48.116;11.656;2024-01-27T00:08:24;3.97;;;1.85;;
41923;SDS011;27613;48.116;11.656;2024-01-27T00:10:50;2.58;;;1.50;;
41923;SDS011;27613;48.116;11.656;2024-01-27T00:13:15;7.35;;;2.03;;
41923;SDS011;27613;48.116;11.656;2024-01-27T00:15:41;3.70;;;1.88;;
41923;SDS011;27613;48.116;11.656;2024-01-27T00:18:06;3.15;;;1.60;;
41923;SDS011;27613;48.116;11.656;2024-01-27T00:20:32;2.50;;;1.48;;
41923;SDS011;27613;48.116;11.656;2024-01-27T00:22:58;2.97;;;1.75;;
41923;SDS011;27613;48.116;11.656;2024-01-27T00:25:23;3.72;;;2.05;;
41923;SDS011;27613;48.116;11.656;2024-01-27T00:27:49;3.53;;;1.95;;
41923;SDS011;27613;48.116;11.656;2024-01-27T00:30:14;6.55;;;2.25;;
41923;SDS011;27613;48.116;11.656;2024-01-27T00:32:40;7.75;;;2.67;;
41923;SDS011;27613;48.116;11.656;2024-01-27T00:35:07;5.38;;;2.60;;
41923;SDS011;27613;48.116;11.656;2024-01-27T00:37:32;5.68;;;2.05;;
41923;SDS011;27613;48.116;11.656;2024-01-27T00:39:58;8.77;;;2.33;;
41923;SDS011;27613;48.116;11.656;2024-01-27T00:42:23;4.07;;;2.22;;
41923;SDS011;27613;48.116;11.656;2024-01-27T00:44:52;5.43;;;2.30;;
41923;SDS011;27613;48.116;11.656;2024-01-27T00:47:17;7.68;;;2.45;;
41923;SDS011;27613;48.116;11.656;2024-01-27T00:49:43;4.18;;;2.10;;
41923;SDS011;27613;48.116;11.656;2024-01-27T00:52:08;7.78;;;2.90;;
41923;SDS011;27613;48.116;11.656;2024-01-27T00:54:34;7.95;;;2.65;;
41923;SDS011;27613;48.116;11.656;2024-01-27T00:56:59;5.82;;;2.78;;
41923;SDS011;27613;48.116;11.656;2024-01-27T00:59:25;8.00;;;3.15;;
41923;SDS011;27613;48.116;11.656;2024-01-27T01:01:50;6.07;;;3.17;;
41923;SDS011;27613;48.116;11.656;2024-01-27T01:04:16;6.70;;;3.03;;
41923;SDS011;27613;48.116;11.656;2024-01-27T01:06:41;5.82;;;3.42;;
41923;SDS011;27613;48.116;11.656;2024-01-27T01:09:07;6.10;;;3.50;;
41923;SDS011;27613;48.116;11.656;2024-01-27T01:11:33;6.60;;;3.10;;
41923;SDS011;27613;48.116;11.656;2024-01-27T01:13:59;7.78;;;2.85;;
41923;SDS011;27613;48.116;11.656;2024-01-27T01:16:24;6.53;;;3.25;;
41923;SDS011;27613;48.116;11.656;2024-01-27T01:18:50;6.03;;;2.78;;
41923;SDS011;27613;48.116;11.656;2024-01-27T01:21:15;8.00;;;2.80;;
41923;SDS011;27613;48.116;11.656;2024-01-27T01:23:41;6.65;;;3.20;;
41923;SDS011;27613;48.116;11.656;2024-01-27T01:26:06;4.50;;;2.72;;
41923;SDS011;27613;48.116;11.656;2024-01-27T01:28:32;3.40;;;1.98;;
41923;SDS011;27613;48.116;11.656;2024-01-27T01:30:57;5.45;;;2.42;;
41923;SDS011;27613;48.116;11.656;2024-01-27T01:33:23;4.18;;;1.58;;
41923;SDS011;27613;48.116;11.656;2024-01-27T01:35:48;5.05;;;1.90;;
41923;SDS011;27613;48.116;11.656;2024-01-27T01:38:14;1.98;;;1.35;;
41923;SDS011;27613;48.116;11.656;2024-01-27T01:40:39;3.42;;;1.23;;
41923;SDS011;27613;48.116;11.656;2024-01-27T01:43:09;4.97;;;1.80;;
41923;SDS011;27613;48.116;11.656;2024-01-27T01:45:36;3.97;;;1.80;;
41923;SDS011;27613;48.116;11.656;2024-01-27T01:48:01;4.03;;;2.05;;
41923;SDS011;27613;48.116;11.656;2024-01-27T01:50:27;4.40;;;1.75;;
41923;SDS011;27613;48.116;11.656;2024-01-27T01:52:53;4.18;;;1.98;;
41923;SDS011;27613;48.116;11.656;2024-01-27T01:55:19;6.00;;;1.90;;
41923;SDS011;27613;48.116;11.656;2024-01-27T01:57:45;10.77;;;2.10;;
41923;SDS011;27613;48.116;11.656;2024-01-27T02:00:11;3.45;;;1.25;;
41923;SDS011;27613;48.116;11.656;2024-01-27T02:02:38;4.38;;;1.50;;
41923;SDS011;27613;48.116;11.656;2024-01-27T02:05:03;1.95;;;1.20;;
41923;SDS011;27613;48.116;11.656;2024-01-27T02:07:29;4.40;;;1.50;;
41923;SDS011;27613;48.116;11.656;2024-01-27T02:09:55;1.92;;;1.40;;
41923;SDS011;27613;48.116;11.656;2024-01-27T02:12:20;5.47;;;1.45;;
41923;SDS011;27613;48.116;11.656;2024-01-27T02:14:46;3.92;;;1.30;;
41923;SDS011;27613;48.116;11.656;2024-01-27T02:17:11;1.65;;;0.98;;
41923;SDS011;27613;48.116;11.656;2024-01-27T02:19:37;2.42;;;1.60;;
41923;SDS011;27613;48.116;11.656;2024-01-27T02:22:03;3.08;;;1.55;;
41923;SDS011;27613;48.116;11.656;2024-01-27T02:24:28;2.85;;;1.48;;
41923;SDS011;27613;48.116;11.656;2024-01-27T02:26:54;2.05;;;1.27;;
41923;SDS011;27613;48.116;11.656;2024-01-27T02:29:20;3.08;;;1.33;;
41923;SDS011;27613;48.116;11.656;2024-01-27T02:31:45;3.10;;;1.60;;
41923;SDS011;27613;48.116;11.656;2024-01-27T02:34:11;3.72;;;1.40;;
41923;SDS011;27613;48.116;11.656;2024-01-27T02:36:36;2.63;;;1.30;;
41923;SDS011;27613;48.116;11.656;2024-01-27T02:39:02;4.53;;;1.98;;
41923;SDS011;27613;48.116;11.656;2024-01-27T02:41:27;2.63;;;1.58;;
41923;SDS011;27613;48.116;11.656;2024-01-27T02:43:53;5.63;;;1.40;;
41923;SDS011;27613;48.116;11.656;2024-01-27T02:46:18;6.13;;;2.63;;
41923;SDS011;27613;48.116;11.656;2024-01-27T02:48:44;2.88;;;1.63;;
41923;SDS011;27613;48.116;11.656;2024-01-27T02:51:10;4.80;;;2.30;;
41923;SDS011;27613;48.116;11.656;2024-01-27T02:53:36;3.25;;;1.20;;
41923;SDS011;27613;48.116;11.656;2024-01-27T02:56:01;1.92;;;1.23;;
41923;SDS011;27613;48.116;11.656;2024-01-27T02:58:27;3.97;;;1.30;;
41923;SDS011;27613;48.116;11.656;2024-01-27T03:00:52;2.60;;;1.35;;
41923;SDS011;27613;48.116;11.656;2024-01-27T03:03:18;2.13;;;1.10;;
41923;SDS011;27613;48.116;11.656;2024-01-27T03:05:44;3.08;;;1.10;;
41923;SDS011;27613;48.116;11.656;2024-01-27T03:08:09;2.63;;;1.40;;
41923;SDS011;27613;48.116;11.656;2024-01-27T03:10:35;1.38;;;1.00;;
41923;SDS011;27613;48.116;11.656;2024-01-27T03:13:00;2.92;;;1.40;;
41923;SDS011;27613;48.116;11.656;2024-01-27T03:15:26;3.05;;;1.45;;
41923;SDS011;27613;48.116;11.656;2024-01-27T03:17:51;6.45;;;1.60;;
41923;SDS011;27613;48.116;11.656;2024-01-27T03:20:17;4.65;;;1.20;;
41923;SDS011;27613;48.116;11.656;2024-01-27T03:22:42;4.03;;;1.48;;
41923;SDS011;27613;48.116;11.656;2024-01-27T03:25:09;2.08;;;1.10;;
41923;SDS011;27613;48.116;11.656;2024-01-27T03:27:35;3.25;;;1.50;;
41923;SDS011;27613;48.116;11.656;2024-01-27T03:30:01;3.65;;;1.40;;
41923;SDS011;27613;48.116;11.656;2024-01-27T03:32:28;1.90;;;1.15;;
41923;SDS011;27613;48.116;11.656;2024-01-27T03:34:57;2.72;;;1.25;;
41923;SDS011;27613;48.116;11.656;2024-01-27T03:37:23;3.60;;;1.45;;
41923;SDS011;27613;48.116;11.656;2024-01-27T03:39:49;4.80;;;1.30;;
41923;SDS011;27613;48.116;11.656;2024-01-27T03:42:14;4.43;;;1.30;;
41923;SDS011;27613;48.116;11.656;2024-01-27T03:44:40;5.13;;;1.25;;
41923;SDS011;27613;48.116;11.656;2024-01-27T03:47:05;2.53;;;1.38;;
41923;SDS011;27613;48.116;11.656;2024-01-27T03:49:31;2.85;;;1.45;;
41923;SDS011;27613;48.116;11.656;2024-01-27T03:51:56;4.32;;;1.33;;
41923;SDS011;27613;48.116;11.656;2024-01-27T03:54:22;2.25;;;1.20;;
41923;SDS011;27613;48.116;11.656;2024-01-27T03:56:47;3.80;;;1.27;;
41923;SDS011;27613;48.116;11.656;2024-01-27T03:59:13;3.50;;;1.35;;
41923;SDS011;27613;48.116;11.656;2024-01-27T04:01:38;2.03;;;1.27;;
41923;SDS011;27613;48.116;11.656;2024-01-27T04:04:04;6.95;;;1.83;;
41923;SDS011;27613;48.116;11.656;2024-01-27T04:06:35;4.82;;;1.45;;
41923;SDS011;27613;48.116;11.656;2024-01-27T04:09:01;4.65;;;1.27;;
41923;SDS011;27613;48.116;11.656;2024-01-27T04:11:28;5.68;;;1.40;;
41923;SDS011;27613;48.116;11.656;2024-01-27T04:13:53;5.28;;;1.27;;
41923;SDS011;27613;48.116;11.656;2024-01-27T04:16:19;6.22;;;1.52;;
41923;SDS011;27613;48.116;11.656;2024-01-27T04:18:44;3.33;;;1.25;;
41923;SDS011;27613;48.116;11.656;2024-01-27T04:21:10;3.40;;;1.35;;
41923;SDS011;27613;48.116;11.656;2024-01-27T04:23:35;3.35;;;1.00;;
41923;SDS011;27613;48.116;11.656;2024-01-27T04:26:01;2.90;;;1.30;;
41923;SDS011;27613;48.116;11.656;2024-01-27T04:28:27;2.40;;;1.20;;
41923;SDS011;27613;48.116;11.656;2024-01-27T04:30:54;6.10;;;1.55;;
41923;SDS011;27613;48.116;11.656;2024-01-27T04:33:20;2.30;;;1.42;;
41923;SDS011;27613;48.116;11.656;2024-01-27T04:35:45;3.45;;;1.42;;
41923;SDS011;27613;48.116;11.656;2024-01-27T04:38:11;3.55;;;1.38;;
41923;SDS011;27613;48.116;11.656;2024-01-27T04:40:37;1.70;;;1.10;;
41923;SDS011;27613;48.116;11.656;2024-01-27T04:43:02;2.97;;;1.25;;
41923;SDS011;27613;48.116;11.656;2024-01-27T04:45:28;2.42;;;1.23;;
41923;SDS011;27613;48.116;11.656;2024-01-27T04:47:53;6.15;;;1.38;;
41923;SDS011;27613;48.116;11.656;2024-01-27T04:50:19;2.33;;;1.10;;
41923;SDS011;27613;48.116;11.656;2024-01-27T04:52:45;6.93;;;1.38;;
41923;SDS011;27613;48.116;11.656;2024-01-27T04:55:11;3.42;;;1.33;;
41923;SDS011;27613;48.116;11.656;2024-01-27T04:57:37;4.70;;;1.33;;
41923;SDS011;27613;48.116;11.656;2024-01-27T05:00:03;1.58;;;1.00;;
41923;SDS011;27613;48.116;11.656;2024-01-27T05:02:32;3.42;;;1.20;;
41923;SDS011;27613;48.116;11.656;2024-01-27T05:04:57;5.65;;;1.38;;
41923;SDS011;27613;48.116;11.656;2024-01-27T05:07:23;3.17;;;1.30;;
41923;SDS011;27613;48.116;11.656;2024-01-27T05:09:48;4.38;;;1.20;;
41923;SDS011;27613;48.116;11.656;2024-01-27T05:12:14;2.42;;;1.38;;
41923;SDS011;27613;48.116;11.656;2024-01-27T05:14:43;2.45;;;1.38;;
41923;SDS011;27613;48.116;11.656;2024-01-27T05:17:10;5.13;;;1.20;;
41923;SDS011;27613;48.116;11.656;2024-01-27T05:19:35;3.30;;;1.27;;
41923;SDS011;27613;48.116;11.656;2024-01-27T05:22:01;2.38;;;1.15;;
41923;SDS011;27613;48.116;11.656;2024-01-27T05:24:26;2.45;;;1.10;;
41923;SDS011;27613;48.116;11.656;2024-01-27T05:26:52;4.07;;;1.52;;
41923;SDS011;27613;48.116;11.656;2024-01-27T05:29:18;3.13;;;1.45;;
41923;SDS011;27613;48.116;11.656;2024-01-27T05:31:43;3.63;;;1.58;;
41923;SDS011;27613;48.116;11.656;2024-01-27T05:34:09;4.60;;;1.63;;
41923;SDS011;27613;48.116;11.656;2024-01-27T05:36:35;4.88;;;2.10;;
41923;SDS011;27613;48.116;11.656;2024-01-27T05:39:01;5.05;;;2.13;;
41923;SDS011;27613;48.116;11.656;2024-01-27T05:41:29;2.80;;;1.65;;
41923;SDS011;27613;48.116;11.656;2024-01-27T05:43:55;4.38;;;1.80;;
41923;SDS011;27613;48.116;11.656;2024-01-27T05:46:23;5.20;;;1.92;;
41923;SDS011;27613;48.116;11.656;2024-01-27T05:48:49;6.00;;;1.80;;
41923;SDS011;27613;48.116;11.656;2024-01-27T05:51:16;2.78;;;1.30;;
41923;SDS011;27613;48.116;11.656;2024-01-27T05:53:41;4.25;;;1.88;;
41923;SDS011;27613;48.116;11.656;2024-01-27T05:56:07;3.45;;;1.95;;
41923;SDS011;27613;48.116;11.656;2024-01-27T05:58:32;2.65;;;1.38;;
41923;SDS011;27613;48.116;11.656;2024-01-27T06:00:58;4.75;;;1.52;;
41923;SDS011;27613;48.116;11.656;2024-01-27T06:03:23;3.60;;;1.70;;
41923;SDS011;27613;48.116;11.656;2024-01-27T06:05:49;2.25;;;1.23;;
41923;SDS011;27613;48.116;11.656;2024-01-27T06:08:15;3.15;;;1.40;;
41923;SDS011;27613;48.116;11.656;2024-01-27T06:10:40;6.05;;;1.90;;
41923;SDS011;27613;48.116;11.656;2024-01-27T06:13:06;1.92;;;1.40;;
41923;SDS011;27613;48.116;11.656;2024-01-27T06:15:31;3.78;;;1.40;;
41923;SDS011;27613;48.116;11.656;2024-01-27T06:17:57;3.50;;;1.50;;
41923;SDS011;27613;48.116;11.656;2024-01-27T06:20:22;4.90;;;1.50;;
41923;SDS011;27613;48.116;11.656;2024-01-27T06:22:48;2.58;;;1.38;;
41923;SDS011;27613;48.116;11.656;2024-01-27T06:25:14;4.68;;;1.70;;
41923;SDS011;27613;48.116;11.656;2024-01-27T06:27:39;3.33;;;1.77;;
41923;SDS011;27613;48.116;11.656;2024-01-27T06:30:08;4.40;;;1.80;;
41923;SDS011;27613;48.116;11.656;2024-01-27T06:32:35;3.58;;;1.73;;
41923;SDS011;27613;48.116;11.656;2024-01-27T06:35:01;3.10;;;1.60;;
41923;SDS011;27613;48.116;11.656;2024-01-27T06:37:29;4.15;;;1.77;;
41923;SDS011;27613;48.116;11.656;2024-01-27T06:39:54;3.13;;;1.55;;
41923;SDS011;27613;48.116;11.656;2024-01-27T06:42:20;3.30;;;1.70;;
41923;SDS011;27613;48.116;11.656;2024-01-27T06:44:46;2.45;;;1.55;;
41923;SDS011;27613;48.116;11.656;2024-01-27T06:47:11;5.20;;;1.80;;
41923;SDS011;27613;48.116;11.656;2024-01-27T06:49:37;3.22;;;1.67;;
41923;SDS011;27613;48.116;11.656;2024-01-27T06:52:02;7.38;;;1.85;;
41923;SDS011;27613;48.116;11.656;2024-01-27T06:54:28;3.03;;;1.63;;
41923;SDS011;27613;48.116;11.656;2024-01-27T06:56:54;2.85;;;1.65;;
41923;SDS011;27613;48.116;11.656;2024-01-27T06:59:19;2.55;;;1.80;;
41923;SDS011;27613;48.116;11.656;2024-01-27T07:01:46;2.92;;;1.58;;
41923;SDS011;27613;48.116;11.656;2024-01-27T07:04:13;2.83;;;1.75;;
41923;SDS011;27613;48.116;11.656;2024-01-27T07:06:42;4.35;;;2.25;;
41923;SDS011;27613;48.116;11.656;2024-01-27T07:09:08;2.42;;;1.50;;
41923;SDS011;27613;48.116;11.656;2024-01-27T07:11:34;4.60;;;1.80;;
41923;SDS011;27613;48.116;11.656;2024-01-27T07:14:03;4.57;;;1.98;;
41923;SDS011;27613;48.116;11.656;2024-01-27T07:16:29;2.65;;;1.42;;
41923;SDS011;27613;48.116;11.656;2024-01-27T07:18:55;1.73;;;1.20;;
41923;SDS011;27613;48.116;11.656;2024-01-27T07:21:20;4.45;;;2.22;;
41923;SDS011;27613;48.116;11.656;2024-01-27T07:23:46;5.07;;;2.20;;
41923;SDS011;27613;48.116;11.656;2024-01-27T07:26:12;3.85;;;1.95;;
41923;SDS011;27613;48.116;11.656;2024-01-27T07:28:38;3.88;;;2.05;;
41923;SDS011;27613;48.116;11.656;2024-01-27T07:31:04;3.78;;;2.00;;
41923;SDS011;27613;48.116;11.656;2024-01-27T07:33:30;3.90;;;1.90;;
41923;SDS011;27613;48.116;11.656;2024-01-27T07:35:58;6.15;;;2.33;;
41923;SDS011;27613;48.116;11.656;2024-01-27T07:38:23;4.75;;;2.15;;
41923;SDS011;27613;48.116;11.656;2024-01-27T07:40:49;8.50;;;2.50;;
41923;SDS011;27613;48.116;11.656;2024-01-27T07:43:14;4.13;;;2.20;;
41923;SDS011;27613;48.116;11.656;2024-01-27T07:45:40;7.10;;;2.45;;
41923;SDS011;27613;48.116;11.656;2024-01-27T07:48:06;7.25;;;2.53;;
41923;SDS011;27613;48.116;11.656;2024-01-27T07:50:32;12.15;;;2.75;;
41923;SDS011;27613;48.116;11.656;2024-01-27T07:52:58;3.88;;;1.80;;
41923;SDS011;27613;48.116;11.656;2024-01-27T07:55:23;5.13;;;2.20;;
41923;SDS011;27613;48.116;11.656;2024-01-27T07:57:49;5.15;;;1.80;;
41923;SDS011;27613;48.116;11.656;2024-01-27T08:00:15;4.88;;;1.90;;
41923;SDS011;27613;48.116;11.656;2024-01-27T08:02:40;2.60;;;1.45;;
41923;SDS011;27613;48.116;11.656;2024-01-27T08:05:06;4.05;;;1.83;;
41923;SDS011;27613;48.116;11.656;2024-01-27T08:07:32;5.57;;;2.28;;
41923;SDS011;27613;48.116;11.656;2024-01-27T08:09:57;3.15;;;1.55;;
41923;SDS011;27613;48.116;11.656;2024-01-27T08:12:23;3.22;;;1.55;;
41923;SDS011;27613;48.116;11.656;2024-01-27T08:14:48;4.68;;;1.50;;
41923;SDS011;27613;48.116;11.656;2024-01-27T08:17:14;4.90;;;1.55;;
41923;SDS011;27613;48.116;11.656;2024-01-27T08:19:39;3.75;;;1.73;;
41923;SDS011;27613;48.116;11.656;2024-01-27T08:22:05;5.82;;;1.77;;
41923;SDS011;27613;48.116;11.656;2024-01-27T08:24:30;2.28;;;1.30;;
41923;SDS011;27613;48.116;11.656;2024-01-27T08:26:58;3.08;;;1.58;;
41923;SDS011;27613;48.116;11.656;2024-01-27T08:29:25;5.05;;;1.63;;
41923;SDS011;27613;48.116;11.656;2024-01-27T08:31:51;4.55;;;1.80;;
41923;SDS011;27613;48.116;11.656;2024-01-27T08:34:16;2.20;;;1.50;;
41923;SDS011;27613;48.116;11.656;2024-01-27T08:36:42;3.35;;;1.40;;
41923;SDS011;27613;48.116;11.656;2024-01-27T08:39:07;4.63;;;1.55;;
41923;SDS011;27613;48.116;11.656;2024-01-27T08:41:33;3.50;;;1.80;;
41923;SDS011;27613;48.116;11.656;2024-01-27T08:43:59;3.65;;;1.65;;
41923;SDS011;27613;48.116;11.656;2024-01-27T08:46:24;4.47;;;1.85;;
41923;SDS011;27613;48.116;11.656;2024-01-27T08:48:50;4.60;;;1.75;;
41923;SDS011;27613;48.116;11.656;2024-01-27T08:51:16;3.58;;;1.98;;
41923;SDS011;27613;48.116;11.656;2024-01-27T08:53:42;3.17;;;1.45;;
41923;SDS011;27613;48.116;11.656;2024-01-27T08:56:13;3.03;;;1.63;;
41923;SDS011;27613;48.116;11.656;2024-01-27T08:58:39;4.28;;;1.77;;
41923;SDS011;27613;48.116;11.656;2024-01-27T09:01:05;4.00;;;1.80;;
41923;SDS011;27613;48.116;11.656;2024-01-27T09:03:33;6.03;;;1.77;;
41923;SDS011;27613;48.116;11.656;2024-01-27T09:05:58;9.10;;;1.95;;
41923;SDS011;27613;48.116;11.656;2024-01-27T09:08:24;5.63;;;1.90;;
41923;SDS011;27613;48.116;11.656;2024-01-27T09:10:49;4.13;;;1.80;;
41923;SDS011;27613;48.116;11.656;2024-01-27T09:13:15;2.35;;;1.52;;
41923;SDS011;27613;48.116;11.656;2024-01-27T09:15:41;5.90;;;2.10;;
41923;SDS011;27613;48.116;11.656;2024-01-27T09:18:06;5.70;;;1.98;;
41923;SDS011;27613;48.116;11.656;2024-01-27T09:20:32;4.13;;;1.77;;
41923;SDS011;27613;48.116;11.656;2024-01-27T09:22:57;4.10;;;2.10;;
41923;SDS011;27613;48.116;11.656;2024-01-27T09:25:23;5.70;;;1.77;;
41923;SDS011;27613;48.116;11.656;2024-01-27T09:27:49;3.58;;;1.83;;
41923;SDS011;27613;48.116;11.656;2024-01-27T09:30:15;7.07;;;2.13;;
41923;SDS011;27613;48.116;11.656;2024-01-27T09:32:41;6.05;;;2.38;;
41923;SDS011;27613;48.116;11.656;2024-01-27T09:35:06;4.20;;;1.95;;
41923;SDS011;27613;48.116;11.656;2024-01-27T09:37:32;3.97;;;1.80;;
41923;SDS011;27613;48.116;11.656;2024-01-27T09:39:58;5.63;;;1.92;;
41923;SDS011;27613;48.116;11.656;2024-01-27T09:42:25;5.88;;;2.22;;
41923;SDS011;27613;48.116;11.656;2024-01-27T09:44:51;5.88;;;2.08;;
41923;SDS011;27613;48.116;11.656;2024-01-27T09:47:21;5.78;;;2.08;;
41923;SDS011;27613;48.116;11.656;2024-01-27T09:49:47;5.47;;;2.10;;
41923;SDS011;27613;48.116;11.656;2024-01-27T09:52:14;5.95;;;1.80;;
41923;SDS011;27613;48.116;11.656;2024-01-27T09:54:40;4.40;;;1.70;;
41923;SDS011;27613;48.116;11.656;2024-01-27T09:57:05;4.10;;;1.90;;
41923;SDS011;27613;48.116;11.656;2024-01-27T09:59:33;3.63;;;1.70;;
41923;SDS011;27613;48.116;11.656;2024-01-27T10:02:01;5.75;;;1.80;;
41923;SDS011;27613;48.116;11.656;2024-01-27T10:04:28;6.97;;;1.70;;
41923;SDS011;27613;48.116;11.656;2024-01-27T10:06:55;3.08;;;1.60;;
41923;SDS011;27613;48.116;11.656;2024-01-27T10:09:22;4.80;;;1.90;;
41923;SDS011;27613;48.116;11.656;2024-01-27T10:11:48;4.05;;;1.55;;
41923;SDS011;27613;48.116;11.656;2024-01-27T10:14:14;5.97;;;1.92;;
41923;SDS011;27613;48.116;11.656;2024-01-27T10:16:43;2.90;;;1.55;;
41923;SDS011;27613;48.116;11.656;2024-01-27T10:19:17;5.70;;;2.15;;
41923;SDS011;27613;48.116;11.656;2024-01-27T10:21:46;4.15;;;1.85;;
41923;SDS011;27613;48.116;11.656;2024-01-27T10:24:13;8.65;;;1.90;;
41923;SDS011;27613;48.116;11.656;2024-01-27T10:26:39;4.75;;;1.77;;
41923;SDS011;27613;48.116;11.656;2024-01-27T10:29:04;3.97;;;1.85;;
41923;SDS011;27613;48.116;11.656;2024-01-27T10:31:31;5.82;;;1.90;;
41923;SDS011;27613;48.116;11.656;2024-01-27T10:33:58;4.35;;;1.80;;
41923;SDS011;27613;48.116;11.656;2024-01-27T10:36:26;3.90;;;1.60;;
41923;SDS011;27613;48.116;11.656;2024-01-27T10:38:51;4.13;;;1.58;;
41923;SDS011;27613;48.116;11.656;2024-01-27T10:41:21;4.30;;;1.73;;
41923;SDS011;27613;48.116;11.656;2024-01-27T10:43:52;4.78;;;1.63;;
41923;SDS011;27613;48.116;11.656;2024-01-27T10:46:21;2.88;;;1.70;;
41923;SDS011;27613;48.116;11.656;2024-01-27T10:48:50;4.13;;;1.60;;
41923;SDS011;27613;48.116;11.656;2024-01-27T10:51:30;4.05;;;1.83;;
41923;SDS011;27613;48.116;11.656;2024-01-27T10:54:02;4.47;;;1.90;;
41923;SDS011;27613;48.116;11.656;2024-01-27T10:56:31;6.95;;;2.00;;
41923;SDS011;27613;48.116;11.656;2024-01-27T10:59:00;5.15;;;2.13;;
41923;SDS011;27613;48.116;11.656;2024-01-27T11:01:29;6.55;;;1.92;;
41923;SDS011;27613;48.116;11.656;2024-01-27T11:03:57;5.05;;;1.90;;
41923;SDS011;27613;48.116;11.656;2024-01-27T11:06:23;3.65;;;1.58;;
41923;SDS011;27613;48.116;11.656;2024-01-27T11:08:51;4.38;;;1.60;;
41923;SDS011;27613;48.116;11.656;2024-01-27T11:11:18;5.38;;;1.90;;
41923;SDS011;27613;48.116;11.656;2024-01-27T11:13:44;3.60;;;1.63;;
41923;SDS011;27613;48.116;11.656;2024-01-27T11:16:16;11.00;;;1.83;;
41923;SDS011;27613;48.116;11.656;2024-01-27T11:18:42;3.53;;;1.65;;
41923;SDS011;27613;48.116;11.656;2024-01-27T11:21:12;4.63;;;1.67;;
41923;SDS011;27613;48.116;11.656;2024-01-27T11:23:42;7.30;;;2.00;;
41923;SDS011;27613;48.116;11.656;2024-01-27T11:26:08;4.75;;;1.95;;
41923;SDS011;27613;48.116;11.656;2024-01-27T11:28:35;4.38;;;1.90;;
41923;SDS011;27613;48.116;11.656;2024-01-27T11:31:04;5.72;;;2.30;;
41923;SDS011;27613;48.116;11.656;2024-01-27T11:33:31;6.80;;;2.20;;
41923;SDS011;27613;48.116;11.656;2024-01-27T11:36:03;4.80;;;1.92;;
41923;SDS011;27613;48.116;11.656;2024-01-27T11:38:32;10.57;;;2.00;;
41923;SDS011;27613;48.116;11.656;2024-01-27T11:41:01;4.32;;;1.75;;
41923;SDS011;27613;48.116;11.656;2024-01-27T11:43:27;3.58;;;1.70;;
41923;SDS011;27613;48.116;11.656;2024-01-27T11:45:56;4.65;;;1.70;;
41923;SDS011;27613;48.116;11.656;2024-01-27T11:48:23;4.93;;;1.75;;
41923;SDS011;27613;48.116;11.656;2024-01-27T11:50:49;6.50;;;1.83;;
41923;SDS011;27613;48.116;11.656;2024-01-27T11:53:24;4.38;;;1.65;;
41923;SDS011;27613;48.116;11.656;2024-01-27T11:55:56;2.75;;;1.50;;
41923;SDS011;27613;48.116;11.656;2024-01-27T11:58:21;4.57;;;2.10;;
41923;SDS011;27613;48.116;11.656;2024-01-27T12:00:47;3.25;;;1.58;;
41923;SDS011;27613;48.116;11.656;2024-01-27T12:03:13;4.18;;;1.88;;
41923;SDS011;27613;48.116;11.656;2024-01-27T12:05:38;5.28;;;1.77;;
41923;SDS011;27613;48.116;11.656;2024-01-27T12:08:04;6.30;;;1.98;;
41923;SDS011;27613;48.116;11.656;2024-01-27T12:10:33;5.75;;;1.98;;
41923;SDS011;27613;48.116;11.656;2024-01-27T12:12:58;3.40;;;1.50;;
41923;SDS011;27613;48.116;11.656;2024-01-27T12:15:25;4.28;;;1.45;;
41923;SDS011;27613;48.116;11.656;2024-01-27T12:17:51;3.70;;;1.55;;
41923;SDS011;27613;48.116;11.656;2024-01-27T12:20:17;4.75;;;1.73;;
41923;SDS011;27613;48.116;11.656;2024-01-27T12:22:42;3.83;;;1.58;;
41923;SDS011;27613;48.116;11.656;2024-01-27T12:25:09;5.25;;;1.60;;
41923;SDS011;27613;48.116;11.656;2024-01-27T12:27:36;7.13;;;1.60;;
41923;SDS011;27613;48.116;11.656;2024-01-27T12:30:03;4.13;;;1.70;;
41923;SDS011;27613;48.116;11.656;2024-01-27T12:32:29;4.18;;;1.40;;
41923;SDS011;27613;48.116;11.656;2024-01-27T12:34:57;4.97;;;1.90;;
41923;SDS011;27613;48.116;11.656;2024-01-27T12:37:25;6.15;;;1.45;;
41923;SDS011;27613;48.116;11.656;2024-01-27T12:39:51;3.85;;;1.65;;
41923;SDS011;27613;48.116;11.656;2024-01-27T12:42:16;5.57;;;1.80;;
41923;SDS011;27613;48.116;11.656;2024-01-27T12:44:42;3.65;;;1.50;;
41923;SDS011;27613;48.116;11.656;2024-01-27T12:47:11;5.03;;;1.90;;
41923;SDS011;27613;48.116;11.656;2024-01-27T12:49:38;3.28;;;1.50;;
41923;SDS011;27613;48.116;11.656;2024-01-27T12:52:04;3.80;;;1.73;;
41923;SDS011;27613;48.116;11.656;2024-01-27T12:54:30;3.20;;;1.40;;
41923;SDS011;27613;48.116;11.656;2024-01-27T12:56:56;3.80;;;1.35;;
41923;SDS011;27613;48.116;11.656;2024-01-27T12:59:22;4.80;;;1.58;;
41923;SDS011;27613;48.116;11.656;2024-01-27T13:01:48;3.78;;;1.13;;
41923;SDS011;27613;48.116;11.656;2024-01-27T13:04:14;2.97;;;1.20;;
41923;SDS011;27613;48.116;11.656;2024-01-27T13:06:40;3.60;;;1.50;;
41923;SDS011;27613;48.116;11.656;2024-01-27T13:09:06;3.55;;;1.63;;
41923;SDS011;27613;48.116;11.656;2024-01-27T13:11:32;2.15;;;1.13;;
41923;SDS011;27613;48.116;11.656;2024-01-27T13:13:58;2.53;;;1.15;;
41923;SDS011;27613;48.116;11.656;2024-01-27T13:16:23;2.60;;;1.35;;
41923;SDS011;27613;48.116;11.656;2024-01-27T13:18:49;2.85;;;1.08;;
41923;SDS011;27613;48.116;11.656;2024-01-27T13:21:15;7.70;;;1.88;;
41923;SDS011;27613;48.116;11.656;2024-01-27T13:23:40;2.38;;;1.08;;
41923;SDS011;27613;48.116;11.656;2024-01-27T13:26:06;4.60;;;1.40;;
41923;SDS011;27613;48.116;11.656;2024-01-27T13:28:31;3.10;;;1.33;;
41923;SDS011;27613;48.116;11.656;2024-01-27T13:30:57;3.10;;;1.40;;
41923;SDS011;27613;48.116;11.656;2024-01-27T13:33:22;3.28;;;1.40;;
41923;SDS011;27613;48.116;11.656;2024-01-27T13:35:48;2.83;;;1.38;;
41923;SDS011;27613;48.116;11.656;2024-01-27T13:38:14;3.13;;;1.33;;
41923;SDS011;27613;48.116;11.656;2024-01-27T13:40:40;2.42;;;1.17;;
41923;SDS011;27613;48.116;11.656;2024-01-27T13:43:07;4.32;;;1.50;;
41923;SDS011;27613;48.116;11.656;2024-01-27T13:45:33;3.17;;;1.45;;
41923;SDS011;27613;48.116;11.656;2024-01-27T13:47:59;1.45;;;1.00;;
41923;SDS011;27613;48.116;11.656;2024-01-27T13:50:25;3.05;;;1.38;;
41923;SDS011;27613;48.116;11.656;2024-01-27T13:52:51;7.45;;;2.00;;
41923;SDS011;27613;48.116;11.656;2024-01-27T13:55:17;2.75;;;1.30;;
41923;SDS011;27613;48.116;11.656;2024-01-27T13:57:43;2.63;;;1.17;;
41923;SDS011;27613;48.116;11.656;2024-01-27T14:00:09;3.80;;;1.30;;
41923;SDS011;27613;48.116;11.656;2024-01-27T14:02:35;5.63;;;1.40;;
41923;SDS011;27613;48.116;11.656;2024-01-27T14:05:01;3.97;;;1.90;;
41923;SDS011;27613;48.116;11.656;2024-01-27T14:07:27;7.10;;;1.40;;
41923;SDS011;27613;48.116;11.656;2024-01-27T14:09:52;4.88;;;1.55;;
41923;SDS011;27613;48.116;11.656;2024-01-27T14:12:18;2.80;;;1.45;;
41923;SDS011;27613;48.116;11.656;2024-01-27T14:14:48;1.98;;;1.08;;
41923;SDS011;27613;48.116;11.656;2024-01-27T14:17:14;3.15;;;1.30;;
41923;SDS011;27613;48.116;11.656;2024-01-27T14:19:40;2.05;;;1.17;;
41923;SDS011;27613;48.116;11.656;2024-01-27T14:22:05;2.58;;;1.13;;
41923;SDS011;27613;48.116;11.656;2024-01-27T14:24:31;1.65;;;0.98;;
41923;SDS011;27613;48.116;11.656;2024-01-27T14:26:58;3.88;;;1.38;;